sensor_id;sensor_type;location;lat;lon;timestamp;P1;durP1;ratioP1;P2;durP2;ratioP2
43682;SDS011;29285;52.128;21.060;2023-07-09T00:04:57;19.20;;;5.70;;
43682;SDS011;29285;52.128;21.060;2023-07-09T00:09:58;7.10;;;6.30;;
43682;SDS011;29285;52.128;21.060;2023-07-09T00:14:59;11.40;;;5.70;;
43682;SDS011;29285;52.128;21.060;2023-07-09T00:20:01;9.20;;;4.90;;
43682;SDS011;29285;52.128;21.060;2023-07-09T00:25:05;6.40;;;5.80;;
43682;SDS011;29285;52.128;21.060;2023-07-09T00:30:12;11.60;;;5.10;;
43682;SDS011;29285;52.128;21.060;2023-07-09T00:35:24;6.40;;;5.80;;
43682;SDS011;29285;52.128;21.060;2023-07-09T00:40:26;8.30;;;6.10;;
43682;SDS011;29285;52.128;21.060;2023-07-09T00:45:27;8.10;;;5.60;;
43682;SDS011;29285;52.128;21.060;2023-07-09T00:50:39;8.70;;;6.00;;
43682;SDS011;29285;52.128;21.060;2023-07-09T00:55:52;7.70;;;5.20;;
43682;SDS011;29285;52.128;21.060;2023-07-09T01:01:03;6.00;;;4.80;;
43682;SDS011;29285;52.128;21.060;2023-07-09T01:06:11;6.30;;;5.20;;
43682;SDS011;29285;52.128;21.060;2023-07-09T01:11:17;7.50;;;5.20;;
43682;SDS011;29285;52.128;21.060;2023-07-09T01:16:22;5.30;;;4.80;;
43682;SDS011;29285;52.128;21.060;2023-07-09T01:21:26;6.40;;;5.20;;
43682;SDS011;29285;52.128;21.060;2023-07-09T01:26:27;5.70;;;4.90;;
43682;SDS011;29285;52.128;21.060;2023-07-09T01:31:28;5.40;;;4.80;;
43682;SDS011;29285;52.128;21.060;2023-07-09T01:36:29;5.70;;;4.90;;
43682;SDS011;29285;52.128;21.060;2023-07-09T01:41:31;6.20;;;5.40;;
43682;SDS011;29285;52.128;21.060;2023-07-09T01:46:35;6.60;;;5.30;;
43682;SDS011;29285;52.128;21.060;2023-07-09T01:51:36;5.90;;;4.80;;
43682;SDS011;29285;52.128;21.060;2023-07-09T01:56:38;11.30;;;5.20;;
43682;SDS011;29285;52.128;21.060;2023-07-09T02:01:45;4.90;;;4.40;;
43682;SDS011;29285;52.128;21.060;2023-07-09T02:06:46;6.60;;;4.70;;
43682;SDS011;29285;52.128;21.060;2023-07-09T02:11:47;8.70;;;5.10;;
43682;SDS011;29285;52.128;21.060;2023-07-09T02:16:48;5.70;;;5.20;;
43682;SDS011;29285;52.128;21.060;2023-07-09T02:21:50;4.60;;;4.10;;
43682;SDS011;29285;52.128;21.060;2023-07-09T02:26:51;5.10;;;4.60;;
43682;SDS011;29285;52.128;21.060;2023-07-09T02:31:52;4.80;;;4.20;;
43682;SDS011;29285;52.128;21.060;2023-07-09T02:36:56;5.30;;;4.30;;
43682;SDS011;29285;52.128;21.060;2023-07-09T02:41:58;5.20;;;4.60;;
43682;SDS011;29285;52.128;21.060;2023-07-09T02:46:59;7.90;;;5.20;;
43682;SDS011;29285;52.128;21.060;2023-07-09T02:52:00;7.30;;;5.50;;
43682;SDS011;29285;52.128;21.060;2023-07-09T02:57:02;6.00;;;5.30;;
43682;SDS011;29285;52.128;21.060;2023-07-09T03:02:03;5.80;;;4.80;;
43682;SDS011;29285;52.128;21.060;2023-07-09T03:07:05;4.80;;;4.40;;
43682;SDS011;29285;52.128;21.060;2023-07-09T03:12:06;4.90;;;4.50;;
43682;SDS011;29285;52.128;21.060;2023-07-09T03:17:08;4.80;;;4.40;;
43682;SDS011;29285;52.128;21.060;2023-07-09T03:22:09;9.60;;;4.20;;
43682;SDS011;29285;52.128;21.060;2023-07-09T03:27:10;4.40;;;4.00;;
43682;SDS011;29285;52.128;21.060;2023-07-09T03:32:10;5.20;;;4.70;;
43682;SDS011;29285;52.128;21.060;2023-07-09T03:37:11;6.00;;;4.70;;
43682;SDS011;29285;52.128;21.060;2023-07-09T03:42:12;5.60;;;4.90;;
43682;SDS011;29285;52.128;21.060;2023-07-09T03:47:13;5.50;;;5.00;;
43682;SDS011;29285;52.128;21.060;2023-07-09T03:52:14;6.30;;;4.90;;
43682;SDS011;29285;52.128;21.060;2023-07-09T03:57:15;5.60;;;4.50;;
43682;SDS011;29285;52.128;21.060;2023-07-09T04:02:16;5.50;;;4.90;;
43682;SDS011;29285;52.128;21.060;2023-07-09T04:07:17;7.10;;;5.00;;
43682;SDS011;29285;52.128;21.060;2023-07-09T04:12:18;4.90;;;4.30;;
43682;SDS011;29285;52.128;21.060;2023-07-09T04:17:19;4.50;;;4.10;;
43682;SDS011;29285;52.128;21.060;2023-07-09T04:22:22;5.10;;;4.60;;
43682;SDS011;29285;52.128;21.060;2023-07-09T04:27:23;6.50;;;4.40;;
43682;SDS011;29285;52.128;21.060;2023-07-09T04:32:28;4.50;;;4.10;;
43682;SDS011;29285;52.128;21.060;2023-07-09T04:37:29;4.40;;;3.90;;
43682;SDS011;29285;52.128;21.060;2023-07-09T04:42:30;5.20;;;4.10;;
43682;SDS011;29285;52.128;21.060;2023-07-09T04:47:31;4.20;;;3.80;;
43682;SDS011;29285;52.128;21.060;2023-07-09T04:52:31;7.00;;;3.80;;
43682;SDS011;29285;52.128;21.060;2023-07-09T04:57:33;3.80;;;3.50;;
43682;SDS011;29285;52.128;21.060;2023-07-09T05:02:33;10.80;;;4.30;;
43682;SDS011;29285;52.128;21.060;2023-07-09T05:07:34;4.30;;;3.90;;
43682;SDS011;29285;52.128;21.060;2023-07-09T05:12:46;5.60;;;3.70;;
43682;SDS011;29285;52.128;21.060;2023-07-09T05:17:49;4.40;;;3.40;;
43682;SDS011;29285;52.128;21.060;2023-07-09T05:22:50;3.70;;;3.40;;
43682;SDS011;29285;52.128;21.060;2023-07-09T05:27:51;4.20;;;3.20;;
43682;SDS011;29285;52.128;21.060;2023-07-09T05:32:52;4.70;;;2.90;;
43682;SDS011;29285;52.128;21.060;2023-07-09T05:37:56;3.80;;;3.20;;
43682;SDS011;29285;52.128;21.060;2023-07-09T05:42:57;3.30;;;3.00;;
43682;SDS011;29285;52.128;21.060;2023-07-09T05:47:58;3.00;;;2.80;;
43682;SDS011;29285;52.128;21.060;2023-07-09T05:53:00;4.00;;;3.10;;
43682;SDS011;29285;52.128;21.060;2023-07-09T05:58:02;10.30;;;2.90;;
43682;SDS011;29285;52.128;21.060;2023-07-09T06:03:03;4.30;;;2.80;;
43682;SDS011;29285;52.128;21.060;2023-07-09T06:08:07;4.00;;;2.70;;
43682;SDS011;29285;52.128;21.060;2023-07-09T06:13:08;7.40;;;2.70;;
43682;SDS011;29285;52.128;21.060;2023-07-09T06:18:09;4.30;;;2.80;;
43682;SDS011;29285;52.128;21.060;2023-07-09T06:23:10;6.10;;;2.90;;
43682;SDS011;29285;52.128;21.060;2023-07-09T06:28:11;3.00;;;2.70;;
43682;SDS011;29285;52.128;21.060;2023-07-09T06:33:13;8.60;;;2.70;;
43682;SDS011;29285;52.128;21.060;2023-07-09T06:38:15;2.70;;;2.50;;
43682;SDS011;29285;52.128;21.060;2023-07-09T06:43:16;9.80;;;2.80;;
43682;SDS011;29285;52.128;21.060;2023-07-09T06:48:18;5.70;;;2.50;;
43682;SDS011;29285;52.128;21.060;2023-07-09T06:53:20;12.40;;;3.00;;
43682;SDS011;29285;52.128;21.060;2023-07-09T06:58:22;4.20;;;3.10;;
43682;SDS011;29285;52.128;21.060;2023-07-09T07:08:27;4.10;;;2.50;;
43682;SDS011;29285;52.128;21.060;2023-07-09T07:13:29;5.40;;;2.30;;
43682;SDS011;29285;52.128;21.060;2023-07-09T07:18:35;3.40;;;2.60;;
43682;SDS011;29285;52.128;21.060;2023-07-09T07:23:36;4.90;;;2.80;;
43682;SDS011;29285;52.128;21.060;2023-07-09T07:28:37;5.10;;;2.60;;
43682;SDS011;29285;52.128;21.060;2023-07-09T07:33:39;8.40;;;6.70;;
43682;SDS011;29285;52.128;21.060;2023-07-09T07:43:43;8.20;;;3.00;;
43682;SDS011;29285;52.128;21.060;2023-07-09T07:48:44;6.70;;;3.90;;
43682;SDS011;29285;52.128;21.060;2023-07-09T07:53:45;5.60;;;3.00;;
43682;SDS011;29285;52.128;21.060;2023-07-09T07:58:45;7.50;;;3.30;;
43682;SDS011;29285;52.128;21.060;2023-07-09T08:03:46;4.20;;;2.90;;
43682;SDS011;29285;52.128;21.060;2023-07-09T08:08:47;3.10;;;2.40;;
43682;SDS011;29285;52.128;21.060;2023-07-09T08:13:48;11.60;;;2.70;;
43682;SDS011;29285;52.128;21.060;2023-07-09T08:18:49;4.20;;;2.70;;
43682;SDS011;29285;52.128;21.060;2023-07-09T08:23:52;3.80;;;2.50;;
43682;SDS011;29285;52.128;21.060;2023-07-09T08:28:53;3.20;;;2.40;;
43682;SDS011;29285;52.128;21.060;2023-07-09T08:33:55;2.90;;;2.30;;
43682;SDS011;29285;52.128;21.060;2023-07-09T08:38:56;2.20;;;2.00;;
43682;SDS011;29285;52.128;21.060;2023-07-09T08:44:12;4.40;;;2.20;;
43682;SDS011;29285;52.128;21.060;2023-07-09T08:49:19;11.50;;;2.80;;
43682;SDS011;29285;52.128;21.060;2023-07-09T08:54:31;5.10;;;1.90;;
43682;SDS011;29285;52.128;21.060;2023-07-09T08:59:34;3.10;;;1.70;;
43682;SDS011;29285;52.128;21.060;2023-07-09T09:04:37;2.80;;;1.70;;
43682;SDS011;29285;52.128;21.060;2023-07-09T09:09:40;4.90;;;1.80;;
43682;SDS011;29285;52.128;21.060;2023-07-09T09:15:03;4.30;;;1.80;;
43682;SDS011;29285;52.128;21.060;2023-07-09T09:20:21;2.30;;;1.40;;
43682;SDS011;29285;52.128;21.060;2023-07-09T09:25:27;8.30;;;1.70;;
43682;SDS011;29285;52.128;21.060;2023-07-09T09:30:30;3.60;;;1.80;;
43682;SDS011;29285;52.128;21.060;2023-07-09T09:35:33;2.50;;;2.00;;
43682;SDS011;29285;52.128;21.060;2023-07-09T09:40:39;1.30;;;1.20;;
43682;SDS011;29285;52.128;21.060;2023-07-09T09:45:40;2.70;;;1.10;;
43682;SDS011;29285;52.128;21.060;2023-07-09T09:50:44;1.70;;;0.90;;
43682;SDS011;29285;52.128;21.060;2023-07-09T10:00:48;3.50;;;1.80;;
43682;SDS011;29285;52.128;21.060;2023-07-09T10:05:56;2.60;;;1.50;;
43682;SDS011;29285;52.128;21.060;2023-07-09T10:11:10;4.70;;;1.50;;
43682;SDS011;29285;52.128;21.060;2023-07-09T10:16:32;1.80;;;1.00;;
43682;SDS011;29285;52.128;21.060;2023-07-09T10:48:40;2.00;;;0.90;;
43682;SDS011;29285;52.128;21.060;2023-07-09T10:54:07;1.70;;;1.00;;
43682;SDS011;29285;52.128;21.060;2023-07-09T10:59:33;2.40;;;1.30;;
43682;SDS011;29285;52.128;21.060;2023-07-09T11:04:39;1.40;;;1.20;;
43682;SDS011;29285;52.128;21.060;2023-07-09T11:09:45;3.10;;;1.30;;
43682;SDS011;29285;52.128;21.060;2023-07-09T11:14:51;3.20;;;1.50;;
43682;SDS011;29285;52.128;21.060;2023-07-09T11:19:58;17.10;;;6.00;;
43682;SDS011;29285;52.128;21.060;2023-07-09T11:25:05;21.00;;;8.10;;
43682;SDS011;29285;52.128;21.060;2023-07-09T11:30:30;31.60;;;10.40;;
43682;SDS011;29285;52.128;21.060;2023-07-09T11:35:48;9.00;;;3.10;;
43682;SDS011;29285;52.128;21.060;2023-07-09T11:40:52;32.80;;;11.00;;
43682;SDS011;29285;52.128;21.060;2023-07-09T11:45:56;20.50;;;6.50;;
43682;SDS011;29285;52.128;21.060;2023-07-09T11:51:07;12.10;;;4.20;;
43682;SDS011;29285;52.128;21.060;2023-07-09T11:56:17;10.70;;;3.90;;
43682;SDS011;29285;52.128;21.060;2023-07-09T12:01:21;1.60;;;1.40;;
43682;SDS011;29285;52.128;21.060;2023-07-09T12:06:26;6.40;;;1.90;;
43682;SDS011;29285;52.128;21.060;2023-07-09T12:11:32;2.20;;;1.00;;
43682;SDS011;29285;52.128;21.060;2023-07-09T12:16:35;2.40;;;1.10;;
43682;SDS011;29285;52.128;21.060;2023-07-09T12:21:40;2.00;;;1.10;;
43682;SDS011;29285;52.128;21.060;2023-07-09T12:26:47;5.80;;;1.60;;
43682;SDS011;29285;52.128;21.060;2023-07-09T12:31:50;1.00;;;0.70;;
43682;SDS011;29285;52.128;21.060;2023-07-09T12:36:51;2.70;;;1.00;;
43682;SDS011;29285;52.128;21.060;2023-07-09T12:51:58;2.70;;;1.10;;
43682;SDS011;29285;52.128;21.060;2023-07-09T12:57:01;2.80;;;1.30;;
43682;SDS011;29285;52.128;21.060;2023-07-09T13:02:25;3.10;;;1.20;;
43682;SDS011;29285;52.128;21.060;2023-07-09T13:07:30;1.80;;;1.00;;
43682;SDS011;29285;52.128;21.060;2023-07-09T13:12:39;2.70;;;1.20;;
43682;SDS011;29285;52.128;21.060;2023-07-09T13:17:41;2.60;;;1.20;;
43682;SDS011;29285;52.128;21.060;2023-07-09T13:22:43;3.20;;;1.30;;
43682;SDS011;29285;52.128;21.060;2023-07-09T13:27:45;2.40;;;1.40;;
43682;SDS011;29285;52.128;21.060;2023-07-09T13:32:47;7.40;;;1.20;;
43682;SDS011;29285;52.128;21.060;2023-07-09T13:37:50;1.70;;;1.00;;
43682;SDS011;29285;52.128;21.060;2023-07-09T13:42:51;2.10;;;1.20;;
43682;SDS011;29285;52.128;21.060;2023-07-09T13:47:55;2.70;;;1.40;;
43682;SDS011;29285;52.128;21.060;2023-07-09T13:52:56;3.20;;;1.30;;
43682;SDS011;29285;52.128;21.060;2023-07-09T13:57:58;1.60;;;0.80;;
43682;SDS011;29285;52.128;21.060;2023-07-09T14:02:59;4.40;;;1.20;;
43682;SDS011;29285;52.128;21.060;2023-07-09T14:08:00;2.70;;;1.20;;
43682;SDS011;29285;52.128;21.060;2023-07-09T14:13:01;1.60;;;1.20;;
43682;SDS011;29285;52.128;21.060;2023-07-09T14:18:03;4.20;;;1.10;;
43682;SDS011;29285;52.128;21.060;2023-07-09T14:23:08;7.60;;;1.90;;
43682;SDS011;29285;52.128;21.060;2023-07-09T14:28:17;2.10;;;1.00;;
43682;SDS011;29285;52.128;21.060;2023-07-09T14:33:20;4.90;;;1.50;;
43682;SDS011;29285;52.128;21.060;2023-07-09T14:38:25;9.30;;;1.40;;
43682;SDS011;29285;52.128;21.060;2023-07-09T14:43:26;3.70;;;1.50;;
43682;SDS011;29285;52.128;21.060;2023-07-09T14:48:27;1.50;;;1.20;;
43682;SDS011;29285;52.128;21.060;2023-07-09T14:53:28;2.40;;;1.40;;
43682;SDS011;29285;52.128;21.060;2023-07-09T14:58:29;4.50;;;1.70;;
43682;SDS011;29285;52.128;21.060;2023-07-09T15:03:30;3.30;;;1.40;;
43682;SDS011;29285;52.128;21.060;2023-07-09T15:08:31;2.60;;;1.40;;
43682;SDS011;29285;52.128;21.060;2023-07-09T15:13:34;5.80;;;1.70;;
43682;SDS011;29285;52.128;21.060;2023-07-09T15:18:37;2.70;;;1.50;;
43682;SDS011;29285;52.128;21.060;2023-07-09T15:23:39;2.00;;;1.50;;
43682;SDS011;29285;52.128;21.060;2023-07-09T15:28:45;8.50;;;1.60;;
43682;SDS011;29285;52.128;21.060;2023-07-09T15:33:49;2.50;;;1.50;;
43682;SDS011;29285;52.128;21.060;2023-07-09T15:38:50;1.40;;;1.30;;
43682;SDS011;29285;52.128;21.060;2023-07-09T15:43:52;1.80;;;1.50;;
43682;SDS011;29285;52.128;21.060;2023-07-09T15:48:53;4.60;;;1.80;;
43682;SDS011;29285;52.128;21.060;2023-07-09T15:53:55;2.30;;;1.60;;
43682;SDS011;29285;52.128;21.060;2023-07-09T15:58:56;5.10;;;1.90;;
43682;SDS011;29285;52.128;21.060;2023-07-09T16:04:00;3.30;;;1.40;;
43682;SDS011;29285;52.128;21.060;2023-07-09T16:09:09;1.60;;;1.20;;
43682;SDS011;29285;52.128;21.060;2023-07-09T16:14:15;13.50;;;1.90;;
43682;SDS011;29285;52.128;21.060;2023-07-09T16:19:18;6.00;;;1.60;;
43682;SDS011;29285;52.128;21.060;2023-07-09T16:24:21;3.90;;;1.70;;
43682;SDS011;29285;52.128;21.060;2023-07-09T16:29:27;5.10;;;1.60;;
43682;SDS011;29285;52.128;21.060;2023-07-09T16:34:31;2.60;;;1.50;;
43682;SDS011;29285;52.128;21.060;2023-07-09T16:39:40;3.80;;;1.30;;
43682;SDS011;29285;52.128;21.060;2023-07-09T16:44:46;4.80;;;1.40;;
43682;SDS011;29285;52.128;21.060;2023-07-09T16:49:50;3.70;;;1.40;;
43682;SDS011;29285;52.128;21.060;2023-07-09T16:54:52;3.20;;;1.70;;
43682;SDS011;29285;52.128;21.060;2023-07-09T16:59:55;2.00;;;1.70;;
43682;SDS011;29285;52.128;21.060;2023-07-09T17:05:11;1.50;;;1.30;;
43682;SDS011;29285;52.128;21.060;2023-07-09T17:10:13;1.90;;;1.20;;
43682;SDS011;29285;52.128;21.060;2023-07-09T17:15:17;2.80;;;1.20;;
43682;SDS011;29285;52.128;21.060;2023-07-09T17:20:19;4.10;;;1.30;;
43682;SDS011;29285;52.128;21.060;2023-07-09T17:25:32;1.60;;;1.50;;
43682;SDS011;29285;52.128;21.060;2023-07-09T17:30:35;3.30;;;1.30;;
43682;SDS011;29285;52.128;21.060;2023-07-09T17:35:37;1.50;;;1.40;;
43682;SDS011;29285;52.128;21.060;2023-07-09T17:45:39;1.30;;;1.10;;
43682;SDS011;29285;52.128;21.060;2023-07-09T17:50:40;12.10;;;2.80;;
43682;SDS011;29285;52.128;21.060;2023-07-09T17:55:41;1.60;;;1.50;;
43682;SDS011;29285;52.128;21.060;2023-07-09T18:00:42;1.90;;;1.70;;
43682;SDS011;29285;52.128;21.060;2023-07-09T18:05:43;4.30;;;1.80;;
43682;SDS011;29285;52.128;21.060;2023-07-09T18:10:45;1.80;;;1.50;;
43682;SDS011;29285;52.128;21.060;2023-07-09T18:15:50;2.00;;;1.30;;
43682;SDS011;29285;52.128;21.060;2023-07-09T18:20:52;2.80;;;1.70;;
43682;SDS011;29285;52.128;21.060;2023-07-09T18:25:54;3.10;;;1.50;;
43682;SDS011;29285;52.128;21.060;2023-07-09T18:30:55;3.00;;;1.80;;
43682;SDS011;29285;52.128;21.060;2023-07-09T18:35:56;1.60;;;1.30;;
43682;SDS011;29285;52.128;21.060;2023-07-09T18:40:57;1.60;;;1.50;;
43682;SDS011;29285;52.128;21.060;2023-07-09T18:45:58;1.90;;;1.80;;
43682;SDS011;29285;52.128;21.060;2023-07-09T18:51:00;10.00;;;1.90;;
43682;SDS011;29285;52.128;21.060;2023-07-09T18:56:01;2.90;;;1.60;;
43682;SDS011;29285;52.128;21.060;2023-07-09T19:01:03;3.50;;;1.70;;
43682;SDS011;29285;52.128;21.060;2023-07-09T19:06:15;6.80;;;2.30;;
43682;SDS011;29285;52.128;21.060;2023-07-09T19:11:16;12.40;;;2.00;;
43682;SDS011;29285;52.128;21.060;2023-07-09T19:16:24;2.60;;;1.90;;
43682;SDS011;29285;52.128;21.060;2023-07-09T19:21:28;3.50;;;1.80;;
43682;SDS011;29285;52.128;21.060;2023-07-09T19:26:31;8.90;;;2.00;;
43682;SDS011;29285;52.128;21.060;2023-07-09T19:31:31;2.70;;;1.80;;
43682;SDS011;29285;52.128;21.060;2023-07-09T19:36:33;2.70;;;2.00;;
43682;SDS011;29285;52.128;21.060;2023-07-09T19:41:34;5.40;;;1.80;;
43682;SDS011;29285;52.128;21.060;2023-07-09T19:46:35;2.00;;;1.70;;
43682;SDS011;29285;52.128;21.060;2023-07-09T19:51:37;4.00;;;1.80;;
43682;SDS011;29285;52.128;21.060;2023-07-09T19:56:38;4.80;;;1.90;;
43682;SDS011;29285;52.128;21.060;2023-07-09T20:01:39;2.00;;;1.80;;
43682;SDS011;29285;52.128;21.060;2023-07-09T20:06:40;6.50;;;2.30;;
43682;SDS011;29285;52.128;21.060;2023-07-09T20:11:44;3.70;;;1.80;;
43682;SDS011;29285;52.128;21.060;2023-07-09T20:16:48;2.10;;;1.50;;
43682;SDS011;29285;52.128;21.060;2023-07-09T20:21:49;2.10;;;1.80;;
43682;SDS011;29285;52.128;21.060;2023-07-09T20:26:51;3.30;;;2.10;;
43682;SDS011;29285;52.128;21.060;2023-07-09T20:31:53;5.10;;;2.00;;
43682;SDS011;29285;52.128;21.060;2023-07-09T20:36:55;4.50;;;2.00;;
43682;SDS011;29285;52.128;21.060;2023-07-09T20:41:56;2.60;;;2.30;;
43682;SDS011;29285;52.128;21.060;2023-07-09T20:46:58;5.20;;;1.60;;
43682;SDS011;29285;52.128;21.060;2023-07-09T20:51:59;2.30;;;2.10;;
43682;SDS011;29285;52.128;21.060;2023-07-09T20:57:01;5.30;;;3.50;;
43682;SDS011;29285;52.128;21.060;2023-07-09T21:07:16;2.30;;;2.10;;
43682;SDS011;29285;52.128;21.060;2023-07-09T21:12:17;6.00;;;2.40;;
43682;SDS011;29285;52.128;21.060;2023-07-09T21:17:20;3.00;;;2.30;;
43682;SDS011;29285;52.128;21.060;2023-07-09T21:22:23;4.80;;;2.40;;
43682;SDS011;29285;52.128;21.060;2023-07-09T21:27:25;6.00;;;2.40;;
43682;SDS011;29285;52.128;21.060;2023-07-09T21:32:28;4.40;;;2.30;;
43682;SDS011;29285;52.128;21.060;2023-07-09T21:37:31;4.70;;;2.50;;
43682;SDS011;29285;52.128;21.060;2023-07-09T21:42:32;3.60;;;2.70;;
43682;SDS011;29285;52.128;21.060;2023-07-09T21:47:32;3.70;;;2.50;;
43682;SDS011;29285;52.128;21.060;2023-07-09T21:52:33;4.70;;;2.60;;
43682;SDS011;29285;52.128;21.060;2023-07-09T21:57:34;6.30;;;2.40;;
43682;SDS011;29285;52.128;21.060;2023-07-09T22:02:35;4.90;;;2.90;;
43682;SDS011;29285;52.128;21.060;2023-07-09T22:07:36;4.20;;;2.60;;
43682;SDS011;29285;52.128;21.060;2023-07-09T22:12:38;3.00;;;2.60;;
43682;SDS011;29285;52.128;21.060;2023-07-09T22:17:42;3.20;;;2.30;;
43682;SDS011;29285;52.128;21.060;2023-07-09T22:22:44;5.20;;;2.60;;
43682;SDS011;29285;52.128;21.060;2023-07-09T22:27:45;4.30;;;3.00;;
43682;SDS011;29285;52.128;21.060;2023-07-09T22:32:49;3.40;;;2.90;;
43682;SDS011;29285;52.128;21.060;2023-07-09T22:37:52;3.80;;;2.60;;
43682;SDS011;29285;52.128;21.060;2023-07-09T22:42:53;7.30;;;2.90;;
43682;SDS011;29285;52.128;21.060;2023-07-09T22:47:56;4.50;;;3.20;;
43682;SDS011;29285;52.128;21.060;2023-07-09T22:52:59;4.90;;;3.00;;
43682;SDS011;29285;52.128;21.060;2023-07-09T22:58:03;10.00;;;2.90;;
43682;SDS011;29285;52.128;21.060;2023-07-09T23:03:10;3.90;;;2.80;;
43682;SDS011;29285;52.128;21.060;2023-07-09T23:08:23;3.20;;;2.80;;
43682;SDS011;29285;52.128;21.060;2023-07-09T23:13:28;9.70;;;3.50;;
43682;SDS011;29285;52.128;21.060;2023-07-09T23:18:32;4.20;;;3.10;;
43682;SDS011;29285;52.128;21.060;2023-07-09T23:23:32;4.70;;;3.10;;
43682;SDS011;29285;52.128;21.060;2023-07-09T23:28:34;4.20;;;3.00;;
43682;SDS011;29285;52.128;21.060;2023-07-09T23:33:35;6.50;;;3.40;;
43682;SDS011;29285;52.128;21.060;2023-07-09T23:38:37;4.30;;;3.20;;
43682;SDS011;29285;52.128;21.060;2023-07-09T23:43:39;5.80;;;3.20;;
43682;SDS011;29285;52.128;21.060;2023-07-09T23:48:42;5.30;;;3.30;;
43682;SDS011;29285;52.128;21.060;2023-07-09T23:58:45;3.20;;;2.90;;
